createdAt,value
2022-08-04T00:00:46.600Z,4.38
2022-08-04T00:03:12.909Z,4.45
2022-08-04T00:05:39.199Z,4.50
2022-08-04T00:08:05.501Z,4.10
2022-08-04T00:10:31.790Z,4.85
2022-08-04T00:12:58.112Z,4.40
2022-08-04T00:15:24.443Z,4.47
2022-08-04T00:17:50.752Z,5.15
2022-08-04T00:20:17.184Z,4.50
2022-08-04T00:22:43.500Z,3.72
2022-08-04T00:25:09.830Z,4.63
2022-08-04T00:27:36.338Z,4.60
2022-08-04T00:30:02.824Z,4.38
2022-08-04T00:32:33.864Z,4.60
2022-08-04T00:35:00.994Z,4.28
2022-08-04T00:37:27.294Z,4.47
2022-08-04T00:39:53.604Z,4.85
2022-08-04T00:42:20.771Z,5.30
2022-08-04T00:44:47.090Z,4.90
2022-08-04T00:47:13.485Z,4.63
2022-08-04T00:49:39.786Z,4.55
2022-08-04T00:52:33.046Z,4.85
2022-08-04T00:54:52.367Z,4.05
2022-08-04T00:57:33.433Z,4.32
2022-08-04T01:00:01.035Z,4.57
2022-08-04T01:02:27.336Z,4.25
2022-08-04T01:04:53.625Z,4.53
2022-08-04T01:07:20.179Z,4.93
2022-08-04T01:09:46.638Z,4.65
2022-08-04T01:12:12.929Z,4.90
2022-08-04T01:14:39.219Z,4.65
2022-08-04T01:17:05.520Z,3.90
2022-08-04T01:19:39.169Z,4.30
2022-08-04T01:22:05.507Z,4.75
2022-08-04T01:24:31.803Z,4.65
2022-08-04T01:27:00.860Z,4.32
2022-08-04T01:29:27.464Z,4.95
2022-08-04T01:32:08.660Z,4.22
2022-08-04T01:34:34.952Z,4.35
2022-08-04T01:37:01.301Z,5.32
2022-08-04T01:39:42.886Z,4.28
2022-08-04T01:42:09.910Z,4.60
2022-08-04T01:44:36.266Z,4.28
2022-08-04T01:47:02.589Z,5.18
2022-08-04T01:49:28.982Z,4.78
2022-08-04T01:51:58.490Z,4.97
2022-08-04T01:54:25.903Z,4.78
2022-08-04T01:56:52.221Z,4.72
2022-08-04T01:59:18.526Z,4.70
2022-08-04T02:01:45.140Z,4.68
2022-08-04T02:04:18.777Z,4.28
2022-08-04T02:06:48.515Z,4.80
2022-08-04T02:09:14.824Z,4.35
2022-08-04T02:11:41.153Z,4.18
2022-08-04T02:14:07.463Z,4.88
2022-08-04T02:16:33.782Z,4.28
2022-08-04T02:19:00.088Z,4.40
2022-08-04T02:21:26.574Z,5.03
2022-08-04T02:24:08.208Z,4.90
2022-08-04T02:26:34.814Z,4.85
2022-08-04T02:29:01.109Z,4.40
2022-08-04T02:31:28.906Z,4.93
2022-08-04T02:33:55.374Z,4.50
2022-08-04T02:36:22.275Z,4.43
2022-08-04T02:38:48.816Z,4.73
2022-08-04T02:41:15.120Z,4.00
2022-08-04T02:43:51.619Z,4.28
2022-08-04T02:46:19.433Z,4.45
2022-08-04T02:48:45.744Z,4.03
2022-08-04T02:51:12.040Z,4.57
2022-08-04T02:53:38.400Z,3.95
2022-08-04T02:56:04.711Z,3.97
2022-08-04T02:58:31.069Z,3.90
2022-08-04T03:00:57.408Z,3.92
2022-08-04T03:03:23.744Z,4.32
2022-08-04T03:06:01.190Z,3.92
2022-08-04T03:08:28.135Z,4.20
2022-08-04T03:10:54.453Z,4.20
2022-08-04T03:13:20.782Z,4.40
2022-08-04T03:15:47.091Z,4.20
2022-08-04T03:18:14.243Z,4.40
2022-08-04T03:20:40.566Z,4.03
2022-08-04T03:23:13.596Z,4.00
2022-08-04T03:25:57.100Z,4.28
2022-08-04T03:28:23.954Z,4.43
2022-08-04T03:30:50.273Z,3.88
2022-08-04T03:33:16.614Z,5.25
2022-08-04T03:35:42.922Z,3.85
2022-08-04T03:38:09.249Z,4.40
2022-08-04T03:40:36.304Z,3.70
2022-08-04T03:43:02.618Z,4.03
2022-08-04T03:45:28.916Z,4.40
2022-08-04T03:47:55.238Z,4.15
2022-08-04T03:50:21.526Z,4.50
2022-08-04T03:53:06.530Z,3.90
2022-08-04T03:55:32.824Z,4.20
2022-08-04T03:57:59.120Z,3.70
2022-08-04T04:00:25.427Z,4.00
2022-08-04T04:02:51.797Z,3.50
2022-08-04T04:05:18.150Z,3.38
2022-08-04T04:10:26.747Z,3.72
2022-08-04T04:12:55.284Z,3.25
2022-08-04T04:15:21.590Z,3.40
2022-08-04T04:17:50.362Z,3.35
2022-08-04T04:20:16.684Z,3.85
2022-08-04T04:22:42.989Z,3.60
2022-08-04T04:25:09.317Z,3.38
2022-08-04T04:27:35.631Z,4.35
2022-08-04T04:30:01.970Z,3.28
2022-08-04T04:32:28.960Z,2.78
2022-08-04T04:34:55.267Z,3.60
2022-08-04T04:37:22.347Z,3.10
2022-08-04T04:39:48.946Z,3.22
2022-08-04T04:42:15.235Z,3.17
2022-08-04T04:44:42.058Z,3.47
2022-08-04T04:47:08.372Z,3.58
2022-08-04T04:49:34.701Z,3.42
2022-08-04T04:52:01.273Z,3.17
2022-08-04T04:54:27.600Z,3.03
2022-08-04T04:56:53.888Z,3.53
2022-08-04T04:59:20.203Z,2.85
2022-08-04T05:01:46.935Z,3.20
2022-08-04T05:04:13.271Z,3.00
2022-08-04T05:06:39.569Z,3.40
2022-08-04T05:09:05.892Z,4.00
2022-08-04T05:11:32.201Z,3.03
2022-08-04T05:14:36.570Z,3.78
2022-08-04T05:16:44.816Z,3.53
2022-08-04T05:19:11.116Z,3.10
2022-08-04T05:21:37.406Z,3.60
2022-08-04T05:24:03.724Z,3.50
2022-08-04T05:26:30.103Z,3.00
2022-08-04T05:28:56.415Z,2.90
2022-08-04T05:31:22.708Z,2.58
2022-08-04T05:33:49.004Z,3.20
2022-08-04T05:36:23.559Z,3.20
2022-08-04T05:38:53.897Z,2.78
2022-08-04T05:41:20.231Z,3.05
2022-08-04T05:43:46.548Z,3.17
2022-08-04T05:46:12.868Z,3.10
2022-08-04T05:48:39.151Z,3.88
2022-08-04T05:51:05.443Z,3.28
2022-08-04T05:53:31.732Z,2.90
2022-08-04T05:55:59.092Z,3.03
2022-08-04T05:58:26.195Z,3.08
2022-08-04T06:00:52.674Z,3.75
2022-08-04T06:03:19.084Z,3.35
2022-08-04T06:05:45.464Z,3.17
2022-08-04T06:08:13.488Z,3.03
2022-08-04T06:10:40.294Z,3.40
2022-08-04T06:13:06.585Z,3.20
2022-08-04T06:15:32.996Z,2.67
2022-08-04T06:19:56.368Z,2.53
2022-08-04T06:20:50.024Z,3.20
2022-08-04T06:23:17.308Z,2.72
2022-08-04T06:25:43.601Z,3.25
2022-08-04T06:28:09.915Z,3.03
2022-08-04T06:30:37.129Z,2.95
2022-08-04T06:33:13.476Z,2.42
2022-08-04T06:35:39.770Z,3.47
2022-08-04T06:38:06.056Z,3.55
2022-08-04T06:40:34.043Z,3.17
2022-08-04T06:43:00.777Z,2.92
2022-08-04T06:45:27.077Z,3.33
2022-08-04T06:47:53.412Z,3.08
2022-08-04T06:51:24.862Z,2.72
2022-08-04T06:53:06.048Z,3.00
2022-08-04T06:55:32.364Z,3.72
2022-08-04T06:58:02.872Z,2.90
2022-08-04T07:00:29.839Z,3.20
2022-08-04T07:02:56.136Z,3.25
2022-08-04T07:05:22.455Z,3.13
2022-08-04T07:07:57.697Z,2.70
2022-08-04T07:10:24.958Z,3.33
2022-08-04T07:12:51.374Z,3.25
2022-08-04T07:15:20.246Z,3.67
2022-08-04T07:17:46.549Z,3.20
2022-08-04T07:20:16.566Z,3.63
2022-08-04T07:23:01.837Z,2.33
2022-08-04T07:25:58.744Z,3.53
2022-08-04T07:28:14.381Z,2.95
2022-08-04T07:30:40.670Z,2.92
2022-08-04T07:33:06.949Z,3.33
2022-08-04T07:36:09.295Z,3.22
2022-08-04T07:38:19.484Z,3.40
2022-08-04T07:40:53.926Z,3.22
2022-08-04T07:43:20.227Z,2.50
2022-08-04T07:45:46.526Z,3.88
2022-08-04T07:48:12.921Z,3.28
2022-08-04T07:50:39.238Z,3.15
2022-08-04T07:53:53.369Z,4.15
2022-08-04T07:55:51.993Z,3.20
2022-08-04T07:58:18.333Z,3.13
2022-08-04T08:00:44.615Z,3.60
2022-08-04T08:03:10.953Z,3.42
2022-08-04T08:06:16.594Z,2.97
2022-08-04T08:08:23.616Z,2.50
2022-08-04T08:10:49.926Z,3.00
2022-08-04T08:13:16.253Z,3.08
2022-08-04T08:15:42.542Z,2.75
2022-08-04T08:18:08.864Z,3.00
2022-08-04T08:20:35.163Z,3.33
2022-08-04T08:23:01.461Z,2.78
2022-08-04T08:25:27.759Z,2.33
2022-08-04T08:27:55.915Z,2.72
2022-08-04T08:30:23.842Z,2.20
2022-08-04T08:32:50.150Z,2.95
2022-08-04T08:35:16.451Z,3.75
2022-08-04T08:37:42.730Z,3.00
2022-08-04T08:40:09.027Z,3.28
2022-08-04T08:42:35.310Z,2.90
2022-08-04T08:45:01.610Z,3.15
2022-08-04T08:47:29.343Z,2.85
2022-08-04T08:50:02.462Z,2.50
2022-08-04T08:53:02.318Z,3.10
2022-08-04T08:57:59.748Z,2.42
2022-08-04T09:00:31.998Z,2.28
2022-08-04T09:03:04.658Z,2.90
2022-08-04T09:05:31.700Z,2.40
2022-08-04T09:07:58.331Z,2.25
2022-08-04T09:10:24.640Z,2.17
2022-08-04T09:12:51.638Z,2.30
2022-08-04T09:15:17.962Z,2.97
2022-08-04T09:17:44.266Z,2.67
2022-08-04T09:20:10.579Z,2.42
2022-08-04T09:22:36.807Z,2.50
2022-08-04T09:25:04.729Z,2.60
2022-08-04T09:27:31.070Z,2.20
2022-08-04T09:29:57.366Z,2.00
2022-08-04T09:32:23.603Z,2.03
2022-08-04T09:35:03.564Z,2.10
2022-08-04T09:37:34.799Z,1.80
2022-08-04T09:40:14.763Z,2.85
2022-08-04T09:42:58.267Z,2.58
2022-08-04T09:45:26.572Z,2.22
2022-08-04T09:47:53.182Z,2.20
2022-08-04T09:50:19.732Z,2.25
2022-08-04T09:52:46.348Z,2.50
2022-08-04T09:55:12.896Z,2.38
2022-08-04T09:57:39.190Z,2.30
2022-08-04T10:00:05.470Z,2.60
2022-08-04T10:02:31.794Z,2.25
2022-08-04T10:04:58.182Z,2.53
2022-08-04T10:07:24.661Z,2.60
2022-08-04T10:09:50.989Z,2.60
2022-08-04T10:12:17.851Z,2.17
2022-08-04T10:14:44.153Z,2.60
2022-08-04T10:17:12.977Z,2.50
2022-08-04T10:19:39.224Z,2.13
2022-08-04T10:22:29.282Z,2.20
2022-08-04T10:24:52.655Z,1.95
2022-08-04T10:29:45.269Z,2.20
2022-08-04T10:32:11.496Z,2.30
2022-08-04T10:34:37.800Z,2.30
2022-08-04T10:37:04.884Z,3.27
2022-08-04T10:39:43.519Z,2.50
2022-08-04T10:42:10.621Z,2.42
2022-08-04T10:44:42.564Z,2.10
2022-08-04T10:47:09.024Z,2.20
2022-08-04T10:49:35.422Z,2.50
2022-08-04T10:52:01.740Z,2.60
2022-08-04T10:54:29.885Z,2.53
2022-08-04T10:56:57.019Z,2.20
2022-08-04T11:02:01.650Z,2.42
2022-08-04T11:04:30.472Z,2.08
2022-08-04T11:06:56.809Z,2.25
2022-08-04T11:09:23.066Z,2.70
2022-08-04T11:12:00.507Z,2.60
2022-08-04T11:14:28.459Z,2.13
2022-08-04T11:16:54.745Z,2.13
2022-08-04T11:19:22.656Z,2.35
2022-08-04T11:22:08.947Z,2.38
2022-08-04T11:24:35.175Z,2.10
2022-08-04T11:27:01.418Z,2.63
2022-08-04T11:29:27.697Z,2.13
2022-08-04T11:31:54.144Z,2.40
2022-08-04T11:34:20.808Z,2.70
2022-08-04T11:36:47.144Z,2.38
2022-08-04T11:39:13.548Z,2.42
2022-08-04T11:41:40.042Z,2.38
2022-08-04T11:44:11.884Z,2.47
2022-08-04T11:46:38.940Z,2.33
2022-08-04T11:49:05.171Z,2.30
2022-08-04T11:51:31.406Z,2.30
2022-08-04T11:53:57.628Z,2.30
2022-08-04T11:56:36.807Z,2.10
2022-08-04T11:59:04.507Z,2.60
2022-08-04T12:01:30.754Z,2.77
2022-08-04T12:03:59.735Z,2.53
2022-08-04T12:06:30.721Z,2.78
2022-08-04T12:08:56.988Z,2.30
2022-08-04T12:11:23.291Z,2.53
2022-08-04T12:13:49.617Z,2.05
2022-08-04T12:16:15.918Z,2.70
2022-08-04T12:18:42.310Z,2.10
2022-08-04T12:21:09.766Z,2.40
2022-08-04T12:23:36.818Z,2.60
2022-08-04T12:26:03.060Z,2.43
2022-08-04T12:28:41.379Z,2.27
2022-08-04T12:31:15.585Z,2.55
2022-08-04T12:34:04.547Z,2.60
2022-08-04T12:36:28.218Z,2.65
2022-08-04T12:38:54.494Z,2.07
2022-08-04T12:41:21.284Z,2.13
2022-08-04T12:43:49.618Z,2.50
2022-08-04T12:46:15.955Z,2.40
2022-08-04T12:48:42.193Z,2.63
2022-08-04T12:51:31.120Z,2.50
2022-08-04T12:53:55.103Z,2.60
2022-08-04T12:56:21.354Z,2.80
2022-08-04T12:58:47.627Z,2.10
2022-08-04T13:02:09.235Z,2.70
2022-08-04T13:04:02.095Z,2.50
2022-08-04T13:06:28.416Z,2.47
2022-08-04T13:08:54.653Z,2.27
2022-08-04T13:11:20.907Z,2.93
2022-08-04T13:13:56.704Z,2.73
2022-08-04T13:16:31.623Z,2.67
2022-08-04T13:18:58.066Z,3.00
2022-08-04T13:24:22.759Z,2.30
2022-08-04T13:27:03.517Z,2.38
2022-08-04T13:29:59.695Z,2.50
2022-08-04T13:30:24.153Z,2.42
2022-08-04T13:32:16.622Z,2.42
2022-08-04T13:34:49.446Z,2.72
2022-08-04T13:37:20.791Z,2.90
2022-08-04T13:39:55.414Z,2.50
2022-08-04T13:42:22.570Z,2.45
2022-08-04T13:44:48.978Z,2.83
2022-08-04T13:47:15.337Z,2.55
2022-08-04T13:50:00.839Z,2.53
2022-08-04T13:52:27.992Z,2.80
2022-08-04T13:54:54.288Z,2.63
2022-08-04T13:57:20.997Z,2.63
2022-08-04T13:59:47.402Z,2.58
2022-08-04T14:02:13.630Z,2.70
2022-08-04T14:04:39.863Z,2.67
2022-08-04T14:07:06.096Z,2.80
2022-08-04T14:10:02.533Z,2.55
2022-08-04T14:12:38.186Z,2.22
2022-08-04T14:15:05.504Z,2.63
2022-08-04T14:17:31.863Z,2.63
2022-08-04T14:19:58.579Z,2.60
2022-08-04T14:22:24.924Z,3.22
2022-08-04T14:24:51.254Z,2.83
2022-08-04T14:27:17.566Z,2.55
2022-08-04T14:29:43.798Z,2.57
2022-08-04T14:32:14.191Z,3.20
2022-08-04T14:34:41.352Z,2.90
2022-08-04T14:37:17.605Z,2.50
2022-08-04T14:40:17.919Z,2.58
2022-08-04T14:42:33.618Z,2.90
2022-08-04T14:45:00.988Z,2.57
2022-08-04T14:47:27.287Z,3.00
2022-08-04T14:49:53.523Z,3.03
2022-08-04T14:52:19.757Z,2.80
2022-08-04T14:54:45.986Z,2.20
2022-08-04T14:57:12.224Z,2.50
2022-08-04T14:59:38.475Z,3.00
2022-08-04T15:02:04.753Z,3.00
2022-08-04T15:04:31.579Z,2.47
2022-08-04T15:06:57.986Z,2.67
2022-08-04T15:09:24.348Z,2.58
2022-08-04T15:11:50.642Z,2.92
2022-08-04T15:14:36.449Z,2.63
2022-08-04T15:17:04.026Z,2.83
2022-08-04T15:19:33.559Z,2.80
2022-08-04T15:22:00.034Z,2.65
2022-08-04T15:24:26.275Z,2.83
2022-08-04T15:26:52.510Z,3.17
2022-08-04T15:29:18.744Z,2.83
2022-08-04T15:32:06.266Z,2.43
2022-08-04T15:34:31.255Z,2.63
2022-08-04T15:36:57.945Z,2.80
2022-08-04T15:39:24.394Z,3.05
2022-08-04T15:41:55.143Z,3.00
2022-08-04T15:44:21.980Z,2.70
2022-08-04T15:46:49.307Z,2.50
2022-08-04T15:49:15.637Z,2.58
2022-08-04T15:51:41.884Z,3.33
2022-08-04T15:54:08.740Z,2.55
2022-08-04T15:57:01.132Z,2.88
2022-08-04T15:59:28.158Z,2.25
2022-08-04T16:02:11.507Z,2.80
2022-08-04T16:04:38.350Z,2.50
2022-08-04T16:07:05.212Z,2.30
2022-08-04T16:09:45.102Z,2.35
2022-08-04T16:12:13.762Z,2.50
2022-08-04T16:14:40.224Z,2.33
2022-08-04T16:17:06.466Z,2.43
2022-08-04T16:19:35.911Z,2.95
2022-08-04T16:22:05.341Z,2.20
2022-08-04T16:24:31.684Z,2.40
2022-08-04T16:26:57.971Z,3.10
2022-08-04T16:29:24.222Z,2.80
2022-08-04T16:31:50.476Z,2.60
2022-08-04T16:34:50.283Z,2.35
2022-08-04T16:37:03.041Z,2.53
2022-08-04T16:39:29.409Z,2.30
2022-08-04T16:42:15.584Z,2.30
2022-08-04T16:44:57.439Z,2.80
2022-08-04T16:47:23.777Z,2.25
2022-08-04T16:49:51.886Z,2.40
2022-08-04T16:52:18.450Z,2.53
2022-08-04T16:54:44.680Z,2.80
2022-08-04T16:57:10.988Z,2.40
2022-08-04T16:59:37.219Z,2.43
2022-08-04T17:02:03.516Z,2.42
2022-08-04T17:04:29.807Z,2.90
2022-08-04T17:06:56.090Z,2.40
2022-08-04T17:09:26.813Z,2.83
2022-08-04T17:11:54.883Z,2.47
2022-08-04T17:14:21.111Z,2.30
2022-08-04T17:16:47.438Z,2.92
2022-08-04T17:19:19.871Z,2.40
2022-08-04T17:21:46.911Z,2.40
2022-08-04T17:24:17.812Z,2.78
2022-08-04T17:26:51.618Z,2.70
2022-08-04T17:29:20.254Z,2.67
2022-08-04T17:31:46.713Z,2.50
2022-08-04T17:34:15.727Z,2.50
2022-08-04T17:36:43.784Z,2.45
2022-08-04T17:39:14.737Z,2.65
2022-08-04T17:41:42.941Z,2.70
2022-08-04T17:44:15.650Z,3.08
2022-08-04T17:46:41.979Z,2.35
2022-08-04T17:49:09.754Z,2.53
2022-08-04T17:52:04.247Z,2.43
2022-08-04T17:54:29.778Z,2.70
2022-08-04T17:57:02.877Z,2.35
2022-08-04T17:59:57.192Z,2.23
2022-08-04T18:02:18.512Z,2.38
2022-08-04T18:05:06.285Z,2.53
2022-08-04T18:08:34.923Z,2.38
2022-08-04T18:10:31.021Z,2.50
2022-08-04T18:13:02.234Z,2.38
2022-08-04T18:15:40.560Z,2.22
2022-08-04T18:18:21.925Z,2.40
2022-08-04T18:20:50.230Z,2.42
2022-08-04T18:23:17.000Z,2.15
2022-08-04T18:25:51.522Z,2.58
2022-08-04T18:28:26.529Z,2.58
2022-08-04T18:30:55.221Z,2.47
2022-08-04T18:33:37.615Z,2.70
2022-08-04T18:36:32.978Z,2.30
2022-08-04T18:38:55.791Z,2.10
2022-08-04T18:41:24.717Z,2.20
2022-08-04T18:43:55.796Z,2.38
2022-08-04T18:46:23.000Z,2.53
2022-08-04T18:48:53.346Z,2.35
2022-08-04T18:51:24.243Z,2.70
2022-08-04T18:53:58.604Z,2.50
2022-08-04T18:56:29.650Z,2.28
2022-08-04T18:58:59.966Z,2.30
2022-08-04T19:01:30.069Z,2.53
2022-08-04T19:04:33.786Z,2.17
2022-08-04T19:06:59.113Z,2.42
2022-08-04T19:09:52.359Z,2.88
2022-08-04T19:12:27.146Z,2.35
2022-08-04T19:14:58.224Z,2.53
2022-08-04T19:17:53.583Z,2.45
2022-08-04T19:20:15.747Z,2.60
2022-08-04T19:24:27.717Z,2.20
2022-08-04T19:25:58.953Z,2.78
2022-08-04T19:28:23.921Z,1.90
2022-08-04T19:30:54.780Z,2.17
2022-08-04T19:33:24.965Z,2.33
2022-08-04T19:35:51.706Z,2.50
2022-08-04T19:38:18.891Z,2.40
2022-08-04T19:43:20.702Z,2.42
2022-08-04T19:45:49.261Z,2.40
2022-08-04T19:48:19.584Z,2.63
2022-08-04T19:50:46.230Z,2.35
2022-08-04T19:53:18.766Z,2.60
2022-08-04T19:55:49.826Z,2.53
2022-08-04T19:58:16.533Z,2.45
2022-08-04T20:00:50.895Z,2.40
2022-08-04T20:03:20.208Z,2.33
2022-08-04T20:05:54.455Z,2.42
2022-08-04T20:08:23.637Z,2.45
2022-08-04T20:10:51.658Z,1.95
2022-08-04T20:13:18.439Z,2.40
2022-08-04T20:15:55.536Z,3.20
2022-08-04T20:18:35.720Z,2.50
2022-08-04T20:21:03.409Z,2.58
2022-08-04T20:23:47.861Z,2.28
2022-08-04T20:26:16.195Z,2.20
2022-08-04T20:28:42.502Z,2.88
2022-08-04T20:31:12.294Z,2.65
2022-08-04T20:33:49.377Z,3.25
2022-08-04T20:36:21.267Z,2.30
2022-08-04T20:38:51.908Z,2.10
2022-08-04T20:41:19.187Z,2.30
2022-08-04T20:43:49.573Z,2.20
2022-08-04T20:46:18.054Z,2.28
2022-08-04T20:48:51.909Z,2.25
2022-08-04T20:51:19.926Z,2.38
2022-08-04T20:53:57.761Z,2.35
2022-08-04T20:56:31.038Z,2.50
2022-08-04T20:58:57.915Z,2.50
2022-08-04T21:01:27.121Z,2.67
2022-08-04T21:04:15.230Z,2.20
2022-08-04T21:06:54.837Z,2.53
2022-08-04T21:09:37.599Z,2.60
2022-08-04T21:12:07.920Z,2.60
2022-08-04T21:14:34.204Z,2.60
2022-08-04T21:17:03.815Z,2.60
2022-08-04T21:19:31.528Z,2.38
2022-08-04T21:21:57.948Z,2.70
2022-08-04T21:24:26.188Z,2.28
2022-08-04T21:26:56.366Z,3.08
2022-08-04T21:29:23.246Z,2.42
2022-08-04T21:31:50.922Z,2.55
2022-08-04T21:34:39.260Z,2.30
2022-08-04T21:37:05.920Z,2.57
2022-08-04T21:39:32.709Z,2.38
2022-08-04T21:42:29.800Z,2.60
2022-08-04T21:44:45.407Z,2.60
2022-08-04T21:47:23.418Z,2.73
2022-08-04T21:52:36.349Z,2.87
2022-08-04T21:55:02.780Z,2.58
2022-08-04T21:57:29.956Z,2.80
2022-08-04T21:59:58.560Z,2.45
2022-08-04T22:02:26.275Z,3.13
2022-08-04T22:04:52.988Z,2.42
2022-08-04T22:07:19.219Z,2.70
2022-08-04T22:10:00.295Z,2.72
2022-08-04T22:12:30.112Z,2.50
2022-08-04T22:14:59.312Z,3.08
2022-08-04T22:17:26.247Z,2.88
2022-08-04T22:20:02.010Z,2.80
2022-08-04T22:22:29.604Z,2.85
2022-08-04T22:27:43.832Z,2.65
2022-08-04T22:30:17.805Z,2.90
2022-08-04T22:32:44.369Z,2.55
2022-08-04T22:35:36.266Z,3.17
2022-08-04T22:38:05.716Z,3.00
2022-08-04T22:40:34.248Z,2.97
2022-08-04T22:43:02.924Z,2.60
2022-08-04T22:45:44.576Z,2.97
2022-08-04T22:48:11.347Z,3.05
2022-08-04T22:50:37.628Z,3.38
2022-08-04T22:53:03.921Z,3.33
2022-08-04T22:56:07.692Z,3.03
2022-08-04T22:58:17.618Z,2.90
2022-08-04T23:00:52.028Z,3.45
2022-08-04T23:03:36.939Z,3.28
2022-08-04T23:06:04.611Z,3.10
2022-08-04T23:08:31.070Z,3.85
2022-08-04T23:11:03.571Z,3.05
2022-08-04T23:13:31.718Z,3.38
2022-08-04T23:15:58.113Z,3.25
2022-08-04T23:18:24.423Z,3.35
2022-08-04T23:20:53.142Z,3.00
2022-08-04T23:23:20.134Z,3.00
2022-08-04T23:26:07.109Z,3.25
2022-08-04T23:28:32.715Z,3.80
2022-08-04T23:30:59.010Z,3.13
2022-08-04T23:33:50.652Z,3.28
2022-08-04T23:36:11.845Z,3.25
2022-08-04T23:38:38.282Z,3.20
2022-08-04T23:41:05.624Z,3.03
2022-08-04T23:43:38.731Z,2.92
2022-08-04T23:46:19.457Z,2.70
2022-08-04T23:48:47.245Z,3.53
2022-08-04T23:51:15.700Z,2.60
2022-08-04T23:54:03.166Z,3.30
2022-08-04T23:56:32.357Z,3.00
2022-08-04T23:58:58.663Z,3.15
